Latest Weather Observations for Forrest

IDW60801

Issued at 3:05 pm WST Monday 1 September 2014 (issued every 30 minutes, with the page automatically refreshed every 10 minutes)

About weather observations | Map of weather stations | Latest weather observations for WA | Other Formats
Station Details ID: 011052 Name: FORREST Lat: -30.85 Lon: 128.11 Height: 159.0 m
Data from the previous 72 hours. | See also: Recent months at Forrest
Date/Time
WST
Temp
°C
App
Temp
°C
Dew
Point
Rel
Hum
%
Delta-T
°C
Wind Press
QNH
hPa
Press
MSL
hPa
Rain
since 9 am
mm
Dir
 
Spd
km/h
Gust
km/h
Spd
kts
Gust
kts
01/03:01pm 18.0 11.9 0.2 30 7.8 S 22 33 12 18 1023.4 - 0.0
01/03:00pm 18.0 11.9 0.2 30 7.8 S 22 24 12 13 1023.4 1023.4 0.0
01/02:31pm 18.3 11.6 1.3 32 7.6 S 26 39 14 21 1023.1 - 0.0
01/02:01pm 17.9 12.0 1.4 33 7.4 SSW 22 33 12 18 1023.2 - 0.0
01/01:31pm 18.7 13.2 1.7 32 7.7 SSW 20 35 11 19 1022.8 - 0.0
01/01:01pm 18.4 12.8 1.0 31 7.8 S 20 33 11 18 1022.7 - 0.0
01/12:31pm 18.6 13.0 1.2 31 7.8 S 20 33 11 18 1023.0 - 0.0
01/12:01pm 17.4 12.0 2.2 36 6.9 S 20 35 11 19 1023.5 - 0.0
01/12:00pm 17.4 12.0 2.2 36 6.9 S 20 - 11 - - 1023.5 -
01/11:31am 17.6 11.6 3.1 38 6.7 SSW 24 32 13 17 1023.9 - 0.0
01/11:01am 16.8 11.5 4.8 45 5.7 SSW 22 30 12 16 1024.1 - 0.0
01/10:31am 15.8 10.0 4.5 47 5.3 S 24 32 13 17 1024.1 - 0.0
01/10:01am 15.9 11.3 6.3 53 4.7 SSW 20 32 11 17 1024.0 - 0.0
01/09:31am 14.8 10.2 6.6 58 4.0 S 20 28 11 15 1023.8 - 0.0
01/09:01am 14.2 9.3 7.0 62 3.5 S 22 30 12 16 1023.3 - 0.0
01/09:00am 14.2 9.3 7.0 62 3.5 S 22 - 12 - - 1023.3 -
01/08:31am 13.7 9.2 8.7 72 2.5 S 22 32 12 17 1023.4 - 0.4
01/08:01am 12.9 10.0 12.4 97 0.3 SSW 19 28 10 15 1023.0 - 0.4
01/07:31am 12.5 10.4 12.3 99 0.1 WSW 15 19 8 10 1022.8 - 0.4
01/07:01am 12.1 10.3 12.1 100 0.0 WSW 13 17 7 9 1022.3 - 0.4
01/06:31am 11.9 10.4 11.9 100 0.0 WSW 11 15 6 8 1022.0 - 0.4
01/06:01am 11.8 10.3 11.8 100 0.0 WSW 11 13 6 7 1021.4 - 0.4
01/06:00am 11.8 10.3 11.8 100 0.0 WSW 11 13 6 7 1021.4 1021.3 -
01/05:31am 11.8 10.7 11.8 100 0.0 WSW 9 11 5 6 1020.9 - 0.4
01/05:01am 12.0 11.3 12.0 100 0.0 W 7 9 4 5 1020.5 - 0.4
01/04:31am 12.1 11.4 11.9 99 0.1 SW 7 7 4 4 1020.0 - 0.4
01/04:01am 12.4 11.3 12.1 98 0.2 SW 9 11 5 6 1020.0 - 0.2
01/03:31am 12.8 10.7 11.0 89 1.0 SSW 13 15 7 8 1019.8 - 0.0
01/03:01am 12.8 11.1 11.2 90 0.8 SSW 11 15 6 8 1019.4 - 0.0
01/03:00am 12.8 11.1 11.2 90 0.8 SSW 11 - 6 - - 1019.3 0.0
01/02:31am 13.0 10.8 10.7 86 1.2 SSW 13 17 7 9 1019.4 - 0.0
01/02:01am 13.1 10.4 10.3 83 1.5 SSW 15 19 8 10 1019.1 - 0.0
01/01:31am 13.2 9.6 9.8 80 1.8 SSW 19 24 10 13 1019.0 - 0.0
01/01:01am 13.3 9.5 9.2 76 2.1 S 19 24 10 13 1018.4 - 0.0
01/12:31am 13.5 9.3 9.6 77 2.0 S 22 28 12 15 1018.5 - 0.0
01/12:01am 13.6 9.6 10.6 82 1.6 S 22 28 12 15 1018.3 - 0.0
01/12:00am 13.6 9.6 10.6 82 1.6 S 22 - 12 - - 1018.2 -
 
Date/Time
WST
Temp
°C
App
Temp
°C
Dew
Point
Rel
Hum
%
Delta-T
°C
Wind Press
QNH
hPa
Press
MSL
hPa
Rain
since 9 am
mm
Dir
 
Spd
km/h
Gust
km/h
Spd
kts
Gust
kts
31/11:31pm 13.7 10.6 11.7 88 1.1 S 19 26 10 14 1017.8 - 0.0
31/11:01pm 13.8 9.4 11.8 88 1.1 S 26 35 14 19 1017.9 - 0.0
31/10:31pm 13.7 11.2 13.4 98 0.2 S 19 26 10 14 1017.8 - 0.0
31/10:01pm 13.7 9.7 13.1 96 0.3 S 26 35 14 19 1017.7 - 0.0
31/09:31pm 14.1 8.5 12.0 87 1.1 S 33 41 18 22 1017.4 - 0.0
31/09:01pm 14.9 9.5 10.9 77 2.1 S 30 39 16 21 1017.3 - 0.0
31/09:00pm 14.9 9.5 10.9 77 2.1 S 30 - 16 - - 1017.4 0.0
31/08:31pm 15.2 9.5 11.2 77 2.2 SSW 32 41 17 22 1017.2 - 0.0
31/08:01pm 15.5 10.5 12.1 80 1.9 S 30 39 16 21 1016.7 - 0.0
31/07:31pm 16.4 11.6 12.9 80 2.0 S 30 41 16 22 1016.2 - 0.0
31/07:01pm 16.9 13.2 13.8 82 1.8 S 26 35 14 19 1016.1 - 0.0
31/06:31pm 17.6 13.7 14.3 81 1.9 S 28 35 15 19 1015.6 - 0.0
31/06:01pm 18.4 14.2 13.5 73 2.8 S 28 37 15 20 1014.9 - 0.0
31/06:00pm 18.4 14.2 13.5 73 2.8 S 28 - 15 - - 1014.9 -
31/05:31pm 18.8 13.5 13.2 70 3.2 S 33 43 18 23 1014.4 - 0.0
31/05:09pm 20.3 15.8 12.5 61 4.4 S 28 48 15 26 1013.7 - 0.0
31/05:01pm 20.7 16.5 12.4 59 4.7 SSW 26 33 14 18 1013.6 - 0.0
31/04:31pm 20.7 16.1 12.4 59 4.7 S 28 35 15 19 1013.3 - 0.0
31/04:01pm 21.3 15.6 11.9 55 5.3 S 33 43 18 23 1012.9 - 0.0
31/03:44pm 22.3 15.5 10.8 48 6.4 S 37 48 20 26 1012.4 - 0.0
31/03:31pm 25.5 18.7 7.6 32 9.6 WSW 33 44 18 24 1012.1 - 0.0
31/03:01pm 25.4 18.7 7.5 32 9.5 WSW 32 43 17 23 1012.1 - 0.0
31/03:00pm 25.4 18.7 7.5 32 9.5 WSW 32 - 17 - - 1012.1 0.0
31/02:31pm 25.5 18.7 7.1 31 9.7 WSW 32 43 17 23 1011.9 - 0.0
31/02:01pm 25.8 19.0 7.9 32 9.6 W 33 43 18 23 1011.9 - 0.0
31/01:31pm 25.9 19.6 7.5 31 9.8 W 30 39 16 21 1011.9 - 0.0
31/01:05pm 27.4 20.8 7.8 29 10.6 W 32 50 17 27 1011.8 - 0.0
31/01:01pm 26.5 20.1 7.0 29 10.4 W 30 39 16 21 1011.9 - 0.0
31/12:31pm 26.4 20.1 7.4 30 10.2 NW 30 43 16 23 1012.0 - 0.0
31/12:01pm 26.5 21.9 6.5 28 10.5 WNW 20 30 11 16 1012.4 - 0.0
31/12:00pm 26.5 21.9 6.5 28 10.5 WNW 20 - 11 - - 1012.4 -
31/11:31am 26.0 21.5 7.1 30 10.0 NW 20 30 11 16 1013.2 - 0.0
31/11:01am 25.5 21.3 7.6 32 9.6 NW 19 30 10 16 1013.7 - 0.0
31/10:31am 25.0 21.5 7.2 32 9.4 NNW 15 22 8 12 1014.0 - 0.0
31/10:01am 23.6 20.6 7.7 36 8.4 N 13 20 7 11 1014.4 - 0.0
31/09:31am 22.4 18.7 7.8 39 7.7 N 17 24 9 13 1014.8 - 0.0
31/09:01am 21.9 17.9 8.1 41 7.3 NNE 19 24 10 13 1015.0 - 0.0
31/09:00am 21.9 17.9 8.1 41 7.3 NNE 19 - 10 - - 1015.0 0.0
31/08:31am 20.5 16.9 8.5 46 6.3 NNE 17 22 9 12 1015.2 - 0.0
31/08:01am 19.1 14.6 8.7 51 5.5 NNE 22 28 12 15 1015.2 - 0.0
31/07:31am 17.7 13.4 9.3 58 4.4 NE 22 30 12 16 1015.3 - 0.0
31/07:01am 14.7 12.6 12.4 86 1.3 N 15 20 8 11 1015.2 - 0.0
31/06:31am 12.4 11.3 12.1 98 0.2 N 9 11 5 6 1015.3 - 0.0
31/06:01am 9.4 7.7 8.2 92 0.6 N 7 9 4 5 1015.1 - 0.0
31/06:00am 9.4 7.7 8.2 92 0.6 N 7 - 4 - - 1015.1 -
31/05:31am 9.7 9.0 8.5 92 0.6 WNW 2 6 1 3 1015.1 - 0.0
31/05:01am 11.3 10.2 10.8 97 0.3 SW 7 9 4 5 1015.3 - 0.0
31/04:31am 12.4 12.2 11.9 97 0.3 SSE 4 9 2 5 1015.2 - 0.0
31/04:01am 12.6 13.0 11.3 92 0.7 CALM 0 0 0 0 1014.8 - 0.0
31/03:31am 12.8 13.3 11.7 93 0.6 CALM 0 0 0 0 1014.4 - 0.0
31/03:01am 12.6 13.0 11.3 92 0.7 CALM 0 6 0 3 1014.2 - 0.0
31/03:00am 12.6 13.0 11.3 92 0.7 CALM 0 - 0 - - 1014.2 0.0
31/02:31am 12.6 11.7 11.3 92 0.7 SSE 7 11 4 6 1014.3 - 0.0
31/02:01am 12.1 10.8 9.8 86 1.2 S 7 9 4 5 1014.6 - 0.0
31/01:31am 12.2 10.4 9.4 83 1.4 SSW 9 9 5 5 1015.1 - 0.0
31/01:01am 12.4 10.8 10.1 86 1.2 SE 9 11 5 6 1015.3 - 0.0
31/12:31am 12.9 10.9 10.1 83 1.5 ESE 11 13 6 7 1015.2 - 0.0
31/12:01am 13.2 11.4 9.3 77 2.0 SE 9 13 5 7 1015.4 - 0.0
31/12:00am 13.2 11.4 9.3 77 2.0 SE 9 - 5 - - 1015.4 -
 
Date/Time
WST
Temp
°C
App
Temp
°C
Dew
Point
Rel
Hum
%
Delta-T
°C
Wind Press
QNH
hPa
Press
MSL
hPa
Rain
since 9 am
mm
Dir
 
Spd
km/h
Gust
km/h
Spd
kts
Gust
kts
30/11:31pm 13.9 11.7 9.5 75 2.3 ESE 11 15 6 8 1015.3 - 0.0
30/11:01pm 13.7 11.0 9.0 73 2.4 ESE 13 17 7 9 1015.4 - 0.0
30/10:31pm 14.2 11.1 8.8 70 2.8 SE 15 19 8 10 1015.6 - 0.0
30/10:01pm 14.7 11.1 8.4 66 3.2 SSE 17 24 9 13 1015.5 - 0.0
30/09:31pm 15.3 11.3 8.1 62 3.6 SSE 19 24 10 13 1015.5 - 0.0
30/09:01pm 15.9 11.1 7.4 57 4.3 SSE 22 32 12 17 1015.2 - 0.0
30/09:00pm 15.9 11.1 7.4 57 4.3 SSE 22 - 12 - - 1015.2 0.0
30/08:31pm 16.4 11.3 6.2 51 5.0 SSE 22 30 12 16 1015.3 - 0.0
30/08:01pm 17.1 12.3 4.8 44 5.9 SE 19 28 10 15 1014.7 - 0.0
30/07:31pm 17.9 12.3 3.4 38 6.8 SSE 22 30 12 16 1014.6 - 0.0
30/07:01pm 19.1 12.9 -5.0 19 9.6 WNW 19 20 10 11 1014.0 - 0.0
30/06:31pm 19.6 13.4 -5.3 18 9.9 WNW 19 20 10 11 1013.7 - 0.0
30/06:01pm 21.4 15.9 -5.4 16 10.9 WNW 15 17 8 9 1013.5 - 0.0
30/06:00pm 21.4 15.9 -5.4 16 10.9 WNW 15 - 8 - - 1013.5 -
30/05:31pm 22.6 17.1 -5.3 15 11.5 W 15 17 8 9 1013.3 - 0.0
30/05:01pm 26.9 20.8 -7.3 10 14.1 WNW 17 20 9 11 1013.1 - 0.0
30/04:31pm 29.2 22.6 -6.9 9 15.3 WNW 20 26 11 14 1012.9 - 0.0
30/04:01pm 29.9 23.0 -6.4 9 15.6 W 22 33 12 18 1012.8 - 0.0
30/03:31pm 30.6 24.5 -7.4 8 16.2 WNW 17 28 9 15 1012.6 - 0.0
30/03:01pm 30.7 23.7 -7.3 8 16.2 W 22 32 12 17 1012.6 - 0.0
30/03:00pm 30.7 23.7 -7.3 8 16.2 W 22 - 12 - - 1012.6 0.0
30/02:31pm 31.4 24.8 -6.8 8 16.5 W 20 33 11 18 1012.7 - 0.0
30/02:01pm 30.8 23.8 -7.2 8 16.2 W 22 33 12 18 1012.8 - 0.0
30/01:31pm 31.1 24.7 -7.0 8 16.4 W 19 28 10 15 1013.1 - 0.0
30/01:01pm 31.4 24.3 -8.5 7 16.8 W 22 32 12 17 1013.3 - 0.0
30/12:31pm 30.8 23.3 -8.9 7 16.5 WNW 24 39 13 21 1013.5 - 0.0
30/12:01pm 30.2 21.9 -9.4 7 16.2 WNW 28 39 15 21 1013.9 - 0.0
30/12:00pm 30.2 21.9 -9.4 7 16.2 WNW 28 - 15 - - 1013.9 -
30/11:31am 30.1 22.2 -9.4 7 16.2 WNW 26 35 14 19 1014.4 - 0.0
30/11:01am 29.0 21.1 -8.5 8 15.4 NW 26 37 14 20 1014.9 - 0.0
30/10:31am 28.2 19.9 -9.1 8 15.1 NW 28 37 15 20 1015.5 - 0.0
30/10:01am 27.0 18.2 -10.0 8 14.5 WNW 30 41 16 22 1015.8 - 0.0
30/09:31am 26.0 16.6 -10.8 8 14.1 NW 33 43 18 23 1015.8 - 0.0
30/09:01am 25.1 15.4 -10.0 9 13.5 NW 35 43 19 23 1015.9 - 0.0
30/09:00am 25.1 15.4 -10.0 9 13.5 NW 35 - 19 - - 1015.9 0.0
30/08:31am 24.1 14.8 -9.4 10 12.9 NNW 33 44 18 24 1016.0 - 0.0
30/08:01am 22.4 12.8 -8.4 12 11.9 NNW 35 44 19 24 1016.0 - 0.0
30/07:31am 20.4 12.3 -7.1 15 10.7 NNW 28 35 15 19 1016.1 - 0.0
30/07:01am 17.9 10.2 -6.7 18 9.4 N 26 35 14 19 1016.2 - 0.0
30/06:31am 15.7 9.4 -5.9 22 8.2 N 19 24 10 13 1016.3 - 0.0
30/06:01am 14.4 8.1 -5.9 24 7.6 N 19 20 10 11 1015.9 - 0.0
30/06:00am 14.4 8.1 -5.9 24 7.5 N 19 - 10 - - 1015.9 -
30/05:31am 15.3 9.0 -6.3 22 8.0 N 19 22 10 12 1015.6 - 0.0
30/05:01am 16.3 9.7 -6.7 20 8.6 N 20 24 11 13 1015.4 - 0.0
30/04:31am 16.7 10.4 -6.3 20 8.7 N 19 24 10 13 1015.3 - 0.0
30/04:01am 17.1 10.1 -6.7 19 9.0 N 22 28 12 15 1014.9 - 0.0
30/03:31am 17.7 10.7 -6.9 18 9.3 N 22 28 12 15 1015.0 - 0.0
30/03:01am 17.4 10.1 -6.4 19 9.1 N 24 28 13 15 1015.1 - 0.0
30/03:00am 17.4 10.1 -6.4 19 9.1 N 24 - 13 - - 1015.1 0.0
30/02:31am 17.1 10.2 -6.0 20 8.8 N 22 30 12 16 1015.3 - 0.0
30/02:01am 15.4 8.9 -5.6 23 8.0 N 20 26 11 14 1015.4 - 0.0
30/01:31am 13.2 7.2 -6.4 25 7.1 N 17 19 9 10 1015.6 - 0.0
30/01:01am 13.7 7.7 -6.5 24 7.4 N 17 19 9 10 1015.9 - 0.0
30/12:31am 14.6 8.3 -6.3 23 7.7 N 19 22 10 12 1016.1 - 0.0
30/12:01am 14.5 8.5 -6.4 23 7.7 N 17 20 9 11 1016.3 - 0.0
30/12:00am 14.5 8.5 -6.4 23 7.7 N 17 - 9 - - 1016.3 -
 
Date/Time
WST
Temp
°C
App
Temp
°C
Dew
Point
Rel
Hum
%
Delta-T
°C
Wind Press
QNH
hPa
Press
MSL
hPa
Rain
since 9 am
mm
Dir
 
Spd
km/h
Gust
km/h
Spd
kts
Gust
kts
29/11:31pm 15.4 9.0 -6.8 21 8.2 N 19 20 10 11 1016.4 - 0.0
29/11:01pm 15.6 9.2 -6.6 21 8.2 N 19 20 10 11 1016.6 - 0.0
29/10:31pm 16.5 10.1 -7.2 19 8.8 N 19 22 10 12 1016.8 - 0.0
29/10:01pm 17.3 10.6 -7.9 17 9.3 N 20 24 11 13 1016.8 - 0.0
29/09:31pm 16.9 10.2 -8.3 17 9.2 N 20 24 11 13 1016.9 - 0.0
29/09:01pm 15.6 9.5 -7.9 19 8.5 N 17 19 9 10 1017.2 - 0.0
29/09:00pm 15.6 9.5 -7.9 19 8.5 N 17 - 9 - - 1017.3 0.0
29/08:31pm 15.5 9.8 -8.0 19 8.5 N 15 19 8 10 1017.2 - 0.0
29/08:01pm 16.6 10.5 -7.8 18 8.9 N 17 19 9 10 1017.0 - 0.0
29/07:31pm 17.3 10.8 -7.9 17 9.3 N 19 19 10 10 1016.9 - 0.0
29/07:01pm 17.6 11.1 -7.7 17 9.4 N 19 19 10 10 1016.7 - 0.0
29/06:31pm 18.6 12.8 -8.5 15 10.0 N 15 17 8 9 1016.4 - 0.0
29/06:01pm 20.6 14.4 -8.7 13 11.0 N 17 17 9 9 1016.1 - 0.0
29/06:00pm 20.6 14.4 -8.7 13 11.0 N 17 - 9 - - 1016.1 -
29/05:31pm 23.6 17.3 -9.8 10 12.7 N 17 19 9 10 1015.6 - 0.0
29/05:01pm 27.6 20.4 -9.6 8 14.8 N 22 32 12 17 1015.4 - 0.0
29/04:31pm 29.3 21.7 -10.0 7 15.8 NNW 24 32 13 17 1015.3 - 0.0
29/04:01pm 30.3 21.6 -9.3 7 16.2 N 30 35 16 19 1015.2 - 0.0
29/03:31pm 30.8 22.7 -10.9 6 16.7 NNW 26 35 14 19 1015.2 - 0.0

Other Formats:

Comma delimited format used in spreadsheet applications
http://www.bom.gov.au/fwo/IDW60801/IDW60801.95646.axf

JavaScript Object Notation format (JSON) in row-major order
http://www.bom.gov.au/fwo/IDW60801/IDW60801.95646.json